createdAt,value
2023-04-09T06:59:07.815Z,29.20
2023-04-09T07:00:08.563Z,32.30
2023-04-09T07:01:08.270Z,30.50
2023-04-09T07:02:09.069Z,30.80
2023-04-09T07:03:10.851Z,28.60
2023-04-09T07:04:10.743Z,27.80
2023-04-09T07:05:11.516Z,25.30
2023-04-09T07:06:11.854Z,28.20
2023-04-09T07:07:12.709Z,26.40
2023-04-09T07:08:13.306Z,26.20
2023-04-09T07:09:14.308Z,29.00
2023-04-09T07:10:14.822Z,26.50
2023-04-09T07:11:15.321Z,24.90
2023-04-09T07:12:15.948Z,24.90
2023-04-09T07:13:16.760Z,25.90
2023-04-09T07:14:17.139Z,25.40
2023-04-09T07:15:18.931Z,24.00
2023-04-09T07:16:18.848Z,23.90
2023-04-09T07:17:19.446Z,23.90
2023-04-09T07:18:19.913Z,24.60
2023-04-09T07:19:21.478Z,23.20
2023-04-09T07:20:21.608Z,23.30
2023-04-09T07:21:22.390Z,22.50
2023-04-09T07:22:22.958Z,23.00
2023-04-09T07:23:23.837Z,22.10
2023-04-09T07:24:24.516Z,21.10
2023-04-09T07:25:25.119Z,21.40
2023-04-09T07:26:26.478Z,22.20
2023-04-09T07:27:26.492Z,20.70
2023-04-09T07:28:26.987Z,20.70
2023-04-09T07:29:29.395Z,20.40
2023-04-09T07:30:41.763Z,21.90
2023-04-09T07:31:34.558Z,22.90
2023-04-09T07:32:31.225Z,20.60
2023-04-09T07:33:31.051Z,20.20
2023-04-09T07:34:33.017Z,21.70
2023-04-09T07:35:33.090Z,19.70
2023-04-09T07:36:37.786Z,20.40
2023-04-09T07:39:29.676Z,20.80
2023-04-09T07:40:30.334Z,20.50
2023-04-09T07:41:31.079Z,18.80
2023-04-09T07:42:32.070Z,20.10
2023-04-09T07:46:23.674Z,20.40
2023-04-09T07:47:24.655Z,19.60
2023-04-09T07:48:25.165Z,20.50
2023-04-09T07:49:25.765Z,19.10
2023-04-09T07:52:18.154Z,19.70
2023-04-09T07:53:18.642Z,18.20
2023-04-09T07:54:18.208Z,17.80
2023-04-09T07:55:18.681Z,16.80
2023-04-09T07:56:22.340Z,18.60
2023-04-09T07:57:20.659Z,18.50
2023-04-09T07:58:21.529Z,17.30
2023-04-09T08:02:08.297Z,17.60
2023-04-09T08:03:10.715Z,16.10
2023-04-09T08:04:08.987Z,17.20
2023-04-09T08:05:09.766Z,17.70
2023-04-09T08:06:10.748Z,17.10
2023-04-09T08:11:15.627Z,16.80
2023-04-09T08:12:15.714Z,16.90
2023-04-09T08:13:16.431Z,17.90
2023-04-09T08:14:16.920Z,15.70
2023-04-09T08:15:18.580Z,15.90
2023-04-09T08:16:18.437Z,16.80
2023-04-09T08:20:17.029Z,16.90
2023-04-09T08:21:17.260Z,16.20
2023-04-09T08:24:09.208Z,14.70
2023-04-09T08:25:07.856Z,14.70
2023-04-09T08:26:08.415Z,14.70
2023-04-09T08:27:08.702Z,13.60
2023-04-09T08:28:09.685Z,14.20
2023-04-09T08:29:10.290Z,15.20
2023-04-09T08:33:40.809Z,12.80
2023-04-09T08:34:41.743Z,12.60
2023-04-09T08:35:40.999Z,13.00
2023-04-09T08:36:53.875Z,12.80
2023-04-09T08:39:31.991Z,12.90
2023-04-09T08:40:32.741Z,14.00
2023-04-09T08:43:52.665Z,14.80
2023-04-09T08:44:32.669Z,14.50
2023-04-09T08:45:34.569Z,16.40
2023-04-09T08:46:33.055Z,14.10
2023-04-09T08:47:37.974Z,14.00
2023-04-09T08:50:35.105Z,13.10
2023-04-09T08:51:39.247Z,12.90
2023-04-09T08:52:32.511Z,11.90
2023-04-09T08:53:33.727Z,12.70
2023-04-09T08:54:34.984Z,13.00
2023-04-09T08:55:34.427Z,13.70
2023-04-09T08:56:35.495Z,12.30
2023-04-09T08:57:35.988Z,12.20
2023-04-09T08:58:37.213Z,12.30
2023-04-09T08:59:37.465Z,13.40
2023-04-09T09:00:38.387Z,12.80
2023-04-09T09:01:39.774Z,14.20
2023-04-09T09:02:42.780Z,12.90
2023-04-09T09:03:41.129Z,14.20
2023-04-09T09:04:41.807Z,13.30
2023-04-09T09:05:42.235Z,12.90
2023-04-09T09:06:43.523Z,14.90
2023-04-09T09:07:44.016Z,13.70
2023-04-09T09:08:45.087Z,12.30
2023-04-09T09:09:45.726Z,13.50
2023-04-09T09:10:46.429Z,14.40
2023-04-09T09:11:48.642Z,14.00
2023-04-09T09:16:58.466Z,13.00
2023-04-09T09:17:59.684Z,13.60
2023-04-09T09:19:02.773Z,14.70
2023-04-09T09:25:46.082Z,11.80
2023-04-09T09:26:50.420Z,11.70
2023-04-09T09:30:12.030Z,13.50
2023-04-09T09:34:30.955Z,14.70
2023-04-09T09:46:42.282Z,14.30
2023-04-09T09:53:06.776Z,14.80
2023-04-09T09:54:23.347Z,13.40
2023-04-09T10:08:09.605Z,15.60
2023-04-09T10:18:37.520Z,13.90
2023-04-09T10:25:25.577Z,14.60
2023-04-09T10:32:06.814Z,14.00
2023-04-09T10:42:52.027Z,13.80
2023-04-09T10:48:55.967Z,13.50
2023-04-09T10:59:19.500Z,12.20
2023-04-09T11:05:30.816Z,11.30
2023-04-09T11:08:34.555Z,11.90
2023-04-09T11:19:48.109Z,12.70
2023-04-09T11:20:58.354Z,9.90
2023-04-09T11:40:35.693Z,11.20
2023-04-09T11:45:39.113Z,11.10
2023-04-09T11:46:54.076Z,11.70
2023-04-09T11:49:43.552Z,12.50
2023-04-09T11:52:45.968Z,11.30
2023-04-09T12:00:18.983Z,12.80
2023-04-09T12:04:51.376Z,12.50
2023-04-09T12:08:18.953Z,11.40
2023-04-09T12:11:31.575Z,11.20
2023-04-09T12:36:43.278Z,12.30
2023-04-09T12:39:49.080Z,11.80
2023-04-09T12:42:42.790Z,12.50
2023-04-09T12:47:51.849Z,11.20
